createdAt,value
2022-11-30T00:10:21.205Z,9.33
2022-11-30T00:22:21.285Z,9.33
2022-11-30T00:34:21.198Z,9.32
2022-11-30T00:46:21.348Z,9.31
2022-11-30T00:58:21.190Z,9.31
2022-11-30T01:10:21.195Z,9.31
2022-11-30T01:22:21.210Z,9.30
2022-11-30T01:34:21.301Z,9.30
2022-11-30T01:46:21.234Z,9.29
2022-11-30T01:58:21.308Z,9.28
2022-11-30T02:10:21.314Z,9.28
2022-11-30T02:22:21.301Z,9.28
2022-11-30T02:34:21.257Z,9.27
2022-11-30T02:46:21.394Z,9.26
2022-11-30T02:58:21.726Z,9.26
2022-11-30T03:10:21.206Z,9.26
2022-11-30T03:22:21.196Z,9.25
2022-11-30T03:34:21.194Z,9.24
2022-11-30T03:46:21.304Z,9.24
2022-11-30T03:58:21.217Z,9.23
2022-11-30T04:10:21.245Z,9.22
2022-11-30T04:22:21.320Z,9.22
2022-11-30T04:34:21.221Z,9.21
2022-11-30T04:46:21.380Z,9.20
2022-11-30T04:58:21.250Z,9.20
2022-11-30T05:10:21.215Z,9.19
2022-11-30T05:22:21.279Z,9.18
2022-11-30T05:34:21.249Z,9.18
2022-11-30T05:46:21.262Z,9.17
2022-11-30T05:58:21.301Z,9.16
2022-11-30T06:10:21.254Z,9.16
2022-11-30T06:22:21.199Z,9.15
2022-11-30T06:34:21.280Z,9.15
2022-11-30T06:46:21.303Z,9.14
2022-11-30T06:58:21.189Z,9.13
2022-11-30T07:10:21.248Z,9.12
2022-11-30T07:22:21.200Z,9.12
2022-11-30T07:34:21.308Z,9.12
2022-11-30T07:46:21.259Z,9.12
2022-11-30T07:58:21.259Z,9.11
2022-11-30T08:10:21.287Z,9.11
2022-11-30T08:22:21.310Z,9.10
2022-11-30T08:34:21.307Z,9.10
2022-11-30T08:46:49.070Z,9.10
2022-11-30T08:58:21.197Z,9.10
2022-11-30T09:10:21.299Z,9.10
2022-11-30T09:22:21.194Z,9.09
2022-11-30T09:34:21.260Z,9.09
2022-11-30T09:46:21.253Z,9.08
2022-11-30T09:58:21.270Z,9.08
2022-11-30T10:10:32.225Z,9.08
2022-11-30T10:22:21.274Z,9.07
2022-11-30T10:34:21.336Z,9.07
2022-11-30T10:46:21.300Z,9.07
2022-11-30T10:58:21.257Z,9.06
2022-11-30T11:10:21.205Z,9.06
2022-11-30T11:22:21.286Z,9.06
2022-11-30T11:34:21.288Z,9.05
2022-11-30T11:46:21.352Z,9.05
2022-11-30T11:58:21.256Z,9.04
2022-11-30T12:10:50.460Z,9.04
2022-11-30T12:22:21.271Z,9.04
2022-11-30T12:34:21.205Z,9.04
2022-11-30T12:46:21.256Z,9.03
2022-11-30T12:58:21.320Z,9.03
2022-11-30T13:10:21.294Z,9.02
2022-11-30T13:22:21.205Z,9.02
2022-11-30T13:34:21.208Z,9.02
2022-11-30T13:46:21.246Z,9.01
2022-11-30T13:58:21.296Z,9.01
2022-11-30T14:10:21.274Z,9.01
2022-11-30T14:22:21.282Z,9.00
2022-11-30T14:34:21.199Z,9.00
2022-11-30T14:46:21.291Z,9.00
2022-11-30T14:58:21.255Z,8.99
2022-11-30T15:10:26.514Z,8.99
2022-11-30T15:22:21.198Z,8.98
2022-11-30T15:34:21.305Z,8.98
2022-11-30T15:46:21.342Z,8.96
2022-11-30T15:58:21.309Z,8.95
2022-11-30T16:10:21.244Z,8.94
2022-11-30T16:22:21.198Z,0.59
2022-11-30T16:34:21.205Z,0.60
2022-11-30T16:46:21.348Z,0.59
2022-11-30T16:58:21.196Z,0.60
2022-11-30T17:10:21.192Z,0.60
2022-11-30T17:22:21.297Z,0.60
2022-11-30T17:34:21.204Z,0.59
2022-11-30T17:46:21.387Z,0.60
2022-11-30T17:58:21.200Z,0.60
2022-11-30T18:10:21.208Z,0.60
2022-11-30T18:22:21.200Z,0.60
2022-11-30T18:34:21.303Z,0.60
2022-11-30T18:46:21.325Z,0.60
2022-11-30T18:58:21.308Z,0.59
2022-11-30T19:10:21.311Z,0.60
2022-11-30T19:22:21.205Z,0.59
2022-11-30T19:34:21.250Z,0.60
2022-11-30T19:46:21.478Z,0.60
2022-11-30T19:58:21.250Z,0.60
2022-11-30T20:10:21.234Z,0.60
2022-11-30T20:22:21.645Z,0.60
2022-11-30T20:34:21.226Z,0.60
2022-11-30T20:46:21.283Z,0.60
2022-11-30T20:58:21.275Z,0.60
2022-11-30T21:10:21.278Z,0.60
2022-11-30T21:22:21.305Z,0.60
2022-11-30T21:34:21.525Z,0.60
2022-11-30T21:46:21.332Z,0.60
2022-11-30T21:58:21.559Z,0.60
2022-11-30T22:10:21.221Z,0.60
2022-11-30T22:22:21.481Z,0.60
2022-11-30T22:34:21.477Z,0.60
2022-11-30T22:46:21.321Z,0.60
2022-11-30T22:58:21.541Z,0.60
2022-11-30T23:10:21.437Z,0.60
2022-11-30T23:22:21.559Z,0.60
2022-11-30T23:34:21.247Z,0.60
2022-11-30T23:46:21.633Z,0.60
2022-11-30T23:58:21.532Z,0.60
